createdAt,value
2023-03-04T03:02:51.844Z,2.70
2023-03-04T03:05:19.338Z,2.70
2023-03-04T03:07:46.054Z,2.70
2023-03-04T03:10:13.481Z,2.70
2023-03-04T03:12:40.778Z,2.70
2023-03-04T03:15:08.116Z,2.70
2023-03-04T03:17:34.962Z,2.70
2023-03-04T03:20:01.681Z,2.70
2023-03-04T03:22:28.649Z,2.70
2023-03-04T03:24:55.418Z,2.60
2023-03-04T03:27:22.072Z,2.70
2023-03-04T03:29:50.265Z,2.70
2023-03-04T03:32:16.985Z,2.70
2023-03-04T03:34:43.809Z,2.80
2023-03-04T03:37:10.694Z,2.90
2023-03-04T03:39:37.492Z,2.90
2023-03-04T03:42:04.292Z,2.90
2023-03-04T03:44:31.081Z,2.90
2023-03-04T03:46:57.809Z,2.90
2023-03-04T03:49:24.547Z,3.00
2023-03-04T03:51:51.218Z,2.90
2023-03-04T03:54:17.922Z,2.90
2023-03-04T03:56:44.673Z,3.00
2023-03-04T03:59:11.342Z,3.00
2023-03-04T04:01:38.094Z,3.00
2023-03-04T04:04:05.068Z,3.00
2023-03-04T04:06:31.751Z,3.00
2023-03-04T04:08:58.501Z,3.00
2023-03-04T04:11:25.178Z,3.00
2023-03-04T04:13:51.977Z,3.00
2023-03-04T04:16:18.863Z,3.00
2023-03-04T04:18:45.527Z,3.00
2023-03-04T04:21:12.172Z,3.00
2023-03-04T04:23:38.888Z,3.00
2023-03-04T04:26:05.608Z,3.10
2023-03-04T04:28:32.797Z,3.10
2023-03-04T04:30:59.615Z,3.10
2023-03-04T04:33:26.681Z,3.10
2023-03-04T04:35:53.446Z,3.10
2023-03-04T04:38:20.201Z,3.20
2023-03-04T04:40:46.859Z,3.20
2023-03-04T04:43:13.692Z,3.20
2023-03-04T04:45:42.272Z,3.10
2023-03-04T04:48:09.107Z,3.20
2023-03-04T04:50:35.925Z,3.20
2023-03-04T04:53:02.685Z,3.20
2023-03-04T04:55:29.423Z,3.20
2023-03-04T04:57:56.446Z,3.20
2023-03-04T05:00:23.217Z,3.20
2023-03-04T05:02:50.037Z,3.10
2023-03-04T05:05:16.985Z,3.10
2023-03-04T05:07:43.738Z,3.10
2023-03-04T05:10:10.987Z,3.20
2023-03-04T05:12:37.794Z,3.20
2023-03-04T05:15:04.683Z,3.10
2023-03-04T05:17:31.347Z,3.20
2023-03-04T05:19:58.037Z,3.20
2023-03-04T05:22:24.689Z,3.20
2023-03-04T05:24:51.625Z,3.20
2023-03-04T05:27:18.283Z,3.20
2023-03-04T05:29:46.780Z,3.20
2023-03-04T05:32:13.813Z,3.20
2023-03-04T05:34:40.555Z,3.20
2023-03-04T05:37:07.445Z,3.20
2023-03-04T05:39:34.192Z,3.20
2023-03-04T05:42:00.896Z,3.20
2023-03-04T05:44:27.629Z,3.20
2023-03-04T05:46:54.502Z,3.20
2023-03-04T05:49:21.216Z,3.10
2023-03-04T05:51:48.082Z,3.10
2023-03-04T05:54:15.032Z,3.20
2023-03-04T05:56:41.875Z,3.20
2023-03-04T05:59:08.585Z,3.30
2023-03-04T06:01:35.341Z,3.20
2023-03-04T06:04:02.130Z,3.20
2023-03-04T06:06:28.941Z,3.20
2023-03-04T06:08:55.672Z,3.20
2023-03-04T06:11:22.381Z,3.20
2023-03-04T06:13:49.142Z,3.30
2023-03-04T06:16:15.988Z,3.30
2023-03-04T06:18:42.796Z,3.20
2023-03-04T06:21:09.550Z,3.20
2023-03-04T06:23:36.206Z,3.30
2023-03-04T06:26:03.394Z,3.30
2023-03-04T06:28:30.422Z,3.40
2023-03-04T06:30:58.154Z,3.40
2023-03-04T06:33:25.630Z,3.40
2023-03-04T06:35:56.892Z,3.40
2023-03-04T06:38:24.318Z,3.30
2023-03-04T06:40:51.088Z,3.30
2023-03-04T06:43:18.115Z,3.40
2023-03-04T06:45:44.861Z,3.40
2023-03-04T06:48:12.058Z,3.40
2023-03-04T06:50:41.838Z,3.50
2023-03-04T06:53:08.493Z,3.50
2023-03-04T06:55:35.614Z,3.50
2023-03-04T06:58:02.301Z,3.50
2023-03-04T07:00:29.041Z,3.50
2023-03-04T07:02:55.740Z,3.50
2023-03-04T07:05:22.444Z,3.50
2023-03-04T07:07:49.705Z,3.50
2023-03-04T07:10:18.289Z,3.50
2023-03-04T07:12:45.268Z,3.50
2023-03-04T07:15:11.955Z,3.50
2023-03-04T07:17:38.590Z,3.50
2023-03-04T07:20:05.655Z,3.60
2023-03-04T07:22:32.337Z,3.60
2023-03-04T07:24:59.034Z,3.70
2023-03-04T07:27:25.724Z,3.70
2023-03-04T07:29:52.460Z,3.80
2023-03-04T07:32:19.335Z,3.70
2023-03-04T07:34:46.206Z,3.80
2023-03-04T07:37:12.972Z,3.80
2023-03-04T07:39:39.697Z,3.90
2023-03-04T07:42:06.453Z,3.90
2023-03-04T07:44:39.483Z,3.90
2023-03-04T07:47:06.187Z,3.90
2023-03-04T07:49:32.868Z,3.90
2023-03-04T07:52:06.385Z,3.90
2023-03-04T07:54:33.171Z,3.90
2023-03-04T07:56:59.913Z,3.90
2023-03-04T07:59:26.661Z,4.00
2023-03-04T08:01:53.319Z,4.00
2023-03-04T08:04:20.059Z,4.00
2023-03-04T08:06:48.751Z,4.10
2023-03-04T08:09:15.549Z,4.10
2023-03-04T08:11:42.818Z,4.00
2023-03-04T08:14:12.199Z,4.00
2023-03-04T08:16:38.951Z,4.00
2023-03-04T08:19:06.290Z,4.10
2023-03-04T08:21:34.077Z,4.20
2023-03-04T08:24:07.847Z,4.20
2023-03-04T08:26:41.996Z,4.20
2023-03-04T08:29:11.995Z,4.30
2023-03-04T08:31:39.463Z,4.20
2023-03-04T08:34:07.738Z,4.30
2023-03-04T08:36:34.709Z,4.20
2023-03-04T08:39:01.496Z,4.30
2023-03-04T08:41:29.298Z,4.30
2023-03-04T08:43:56.134Z,4.40
2023-03-04T08:46:22.915Z,4.40
2023-03-04T08:48:49.690Z,4.50
2023-03-04T08:51:17.084Z,4.50
2023-03-04T08:53:44.502Z,4.60
2023-03-04T08:56:14.785Z,4.60
2023-03-04T08:58:41.800Z,4.60
2023-03-04T09:01:11.212Z,4.60
2023-03-04T09:03:38.298Z,4.60
2023-03-04T09:06:06.765Z,4.60
2023-03-04T09:08:34.445Z,4.70
2023-03-04T09:11:01.170Z,4.70
2023-03-04T09:13:29.830Z,4.60
2023-03-04T09:15:56.953Z,4.60
2023-03-04T09:18:24.964Z,4.60
2023-03-04T09:20:51.797Z,4.60
2023-03-04T09:23:19.268Z,4.60
2023-03-04T09:25:47.434Z,4.70
2023-03-04T09:28:15.454Z,4.70
2023-03-04T09:30:42.745Z,4.80
2023-03-04T09:33:10.126Z,4.90
2023-03-04T09:35:37.072Z,4.90
2023-03-04T09:38:03.854Z,4.90
2023-03-04T09:40:36.398Z,5.00
2023-03-04T09:43:05.545Z,5.00
2023-03-04T09:45:41.577Z,5.00
2023-03-04T09:48:13.389Z,5.10
2023-03-04T09:50:48.624Z,5.20
2023-03-04T09:53:25.426Z,5.20
2023-03-04T09:55:52.926Z,5.30
2023-03-04T09:58:25.467Z,5.40
2023-03-04T10:01:00.574Z,5.50
2023-03-04T10:03:48.388Z,5.60
2023-03-04T10:06:20.622Z,5.60
2023-03-04T10:09:09.801Z,5.70
2023-03-04T10:11:49.434Z,5.80
2023-03-04T10:14:22.166Z,5.90
2023-03-04T10:16:53.181Z,5.90
2023-03-04T10:19:32.473Z,6.00
2023-03-04T10:21:59.539Z,6.00
2023-03-04T10:24:29.540Z,6.00
2023-03-04T10:27:02.362Z,6.10
2023-03-04T10:29:31.018Z,6.10
2023-03-04T10:31:58.031Z,6.00
2023-03-04T10:34:24.899Z,5.90
2023-03-04T10:37:07.061Z,5.90
2023-03-04T10:39:47.497Z,6.00
2023-03-04T10:42:14.253Z,5.90
2023-03-04T10:44:53.115Z,5.90
2023-03-04T10:47:19.944Z,5.90
2023-03-04T10:49:53.466Z,5.90
2023-03-04T10:52:31.407Z,6.00
2023-03-04T10:55:27.248Z,6.00
2023-03-04T10:58:06.566Z,6.10
2023-03-04T11:00:37.894Z,6.10
2023-03-04T11:03:30.836Z,6.10
2023-03-04T11:06:05.200Z,6.10
2023-03-04T11:08:32.224Z,6.20
2023-03-04T11:10:58.891Z,6.20
2023-03-04T11:13:27.147Z,6.20
2023-03-04T11:16:03.440Z,6.20
2023-03-04T11:18:43.840Z,6.20
2023-03-04T11:21:31.934Z,6.30
2023-03-04T11:24:00.193Z,6.30
2023-03-04T11:26:47.818Z,6.20
2023-03-04T11:29:20.909Z,6.20
2023-03-04T11:32:20.528Z,6.20
2023-03-04T11:34:59.046Z,6.30
2023-03-04T11:37:35.355Z,6.30
2023-03-04T11:40:10.293Z,6.50
2023-03-04T11:43:13.321Z,6.50
2023-03-04T11:46:01.669Z,6.50
2023-03-04T11:48:47.994Z,6.50
2023-03-04T11:51:33.050Z,6.60
2023-03-04T11:54:21.431Z,6.50
2023-03-04T11:56:52.452Z,6.60
2023-03-04T11:59:34.916Z,6.60
2023-03-04T12:02:28.629Z,6.50
2023-03-04T12:05:33.593Z,6.50
2023-03-04T12:08:36.906Z,6.50
2023-03-04T12:11:28.043Z,6.60
2023-03-04T12:14:14.607Z,6.70
2023-03-04T12:16:50.182Z,6.80
2023-03-04T12:19:27.013Z,6.70
2023-03-04T12:22:10.811Z,6.70
2023-03-04T12:25:00.637Z,6.70
2023-03-04T12:27:56.718Z,6.70
2023-03-04T12:30:44.794Z,6.70
2023-03-04T12:33:48.924Z,6.80
2023-03-04T12:36:42.282Z,6.80
2023-03-04T12:39:31.213Z,6.70
2023-03-04T12:42:26.441Z,6.60
2023-03-04T12:45:14.537Z,6.60
2023-03-04T12:47:55.625Z,6.70
2023-03-04T12:50:41.425Z,6.70
2023-03-04T12:53:26.925Z,6.50
2023-03-04T12:55:56.602Z,6.50
2023-03-04T12:58:31.529Z,6.50
2023-03-04T13:01:23.797Z,6.40
2023-03-04T13:03:56.585Z,6.40
2023-03-04T13:06:45.926Z,6.40
2023-03-04T13:09:26.884Z,6.50
2023-03-04T13:12:02.790Z,6.60
2023-03-04T13:14:31.058Z,6.50
2023-03-04T13:17:08.864Z,6.50
2023-03-04T13:19:45.507Z,6.50
2023-03-04T13:22:30.045Z,6.50
2023-03-04T13:24:58.848Z,6.50
2023-03-04T13:27:48.546Z,6.50
2023-03-04T13:30:34.345Z,6.50
2023-03-04T13:33:16.023Z,6.40
2023-03-04T13:35:55.021Z,6.40
2023-03-04T13:38:27.680Z,6.40
2023-03-04T13:41:19.181Z,6.40
2023-03-04T13:43:47.877Z,6.50
2023-03-04T13:46:20.769Z,6.50
2023-03-04T13:48:50.612Z,6.60
2023-03-04T13:51:29.246Z,6.60
2023-03-04T13:53:59.098Z,6.50
2023-03-04T13:56:38.967Z,6.50
2023-03-04T13:59:12.914Z,6.40
2023-03-04T14:01:39.544Z,6.40
2023-03-04T14:04:22.976Z,6.40
2023-03-04T14:06:51.467Z,6.50
2023-03-04T14:09:24.400Z,6.40
2023-03-04T14:11:53.793Z,6.40
2023-03-04T14:14:43.400Z,6.40
2023-03-04T14:17:20.981Z,6.50
2023-03-04T14:19:49.245Z,6.60
2023-03-04T14:22:40.157Z,6.60
2023-03-04T14:25:18.953Z,6.50
2023-03-04T14:27:46.749Z,6.50
2023-03-04T14:30:39.079Z,6.60
2023-03-04T14:33:13.945Z,6.70
2023-03-04T14:35:47.378Z,6.60
2023-03-04T14:38:35.626Z,6.60
2023-03-04T14:41:07.689Z,6.60
2023-03-04T14:43:50.128Z,6.50
2023-03-04T14:46:19.716Z,6.50
2023-03-04T14:48:51.346Z,6.50
2023-03-04T14:51:43.608Z,6.50
2023-03-04T14:54:33.679Z,6.60
2023-03-04T14:57:21.158Z,6.60
2023-03-04T14:59:48.653Z,6.70
2023-03-04T15:02:31.103Z,6.60
2023-03-04T15:05:17.645Z,6.70
2023-03-04T15:08:10.322Z,6.70
2023-03-04T15:10:38.840Z,6.70
2023-03-04T15:13:08.549Z,6.70
2023-03-04T15:15:44.955Z,6.70
2023-03-04T15:18:14.675Z,6.70
2023-03-04T15:20:41.725Z,6.70
2023-03-04T15:23:09.949Z,6.70
2023-03-04T15:25:36.768Z,6.80
2023-03-04T15:28:04.320Z,6.80
2023-03-04T15:30:33.508Z,6.80
2023-03-04T15:33:00.998Z,6.80
2023-03-04T15:35:31.053Z,6.80
2023-03-04T15:37:58.481Z,6.80
2023-03-04T15:40:28.161Z,6.80
2023-03-04T15:42:57.704Z,6.80
2023-03-04T15:45:36.323Z,6.70
2023-03-04T15:48:09.618Z,6.80
2023-03-04T15:50:39.675Z,6.70
2023-03-04T15:53:10.510Z,6.70
2023-03-04T15:55:37.386Z,6.70
2023-03-04T15:58:04.345Z,6.70
2023-03-04T16:00:32.140Z,6.70
2023-03-04T16:02:58.937Z,6.80
2023-03-04T16:05:25.704Z,6.70
2023-03-04T16:07:52.734Z,6.80
2023-03-04T16:10:26.293Z,6.80
2023-03-04T16:12:54.435Z,6.80
2023-03-04T16:15:27.481Z,6.80
2023-03-04T16:17:55.280Z,6.80
2023-03-04T16:20:24.819Z,6.80
2023-03-04T16:23:00.580Z,6.80
2023-03-04T16:25:28.952Z,6.80
2023-03-04T16:27:56.641Z,6.80
2023-03-04T16:30:25.960Z,6.70
2023-03-04T16:32:53.180Z,6.60
2023-03-04T16:35:21.034Z,6.50
2023-03-04T16:37:47.962Z,6.40
2023-03-04T16:40:19.391Z,6.40
2023-03-04T16:42:46.129Z,6.40
2023-03-04T16:45:23.280Z,6.40
2023-03-04T16:47:50.368Z,6.40
2023-03-04T16:50:20.497Z,6.40
2023-03-04T16:52:49.212Z,6.50
2023-03-04T16:55:19.878Z,6.50
2023-03-04T16:57:47.077Z,6.50
2023-03-04T17:00:17.247Z,6.50
2023-03-04T17:02:45.801Z,6.50
2023-03-04T17:05:21.234Z,6.40
2023-03-04T17:07:48.073Z,6.40
2023-03-04T17:10:16.640Z,6.40
2023-03-04T17:12:43.704Z,6.40
2023-03-04T17:15:12.835Z,6.30
2023-03-04T17:17:40.420Z,6.30
2023-03-04T17:20:08.924Z,6.30
2023-03-04T17:22:36.212Z,6.20
2023-03-04T17:25:04.240Z,6.30
2023-03-04T17:27:31.425Z,6.20
2023-03-04T17:29:58.173Z,6.30
2023-03-04T17:32:27.477Z,6.20
2023-03-04T17:34:56.777Z,6.20
2023-03-04T17:37:23.609Z,6.10
2023-03-04T17:39:50.333Z,6.10
2023-03-04T17:42:17.206Z,6.10
2023-03-04T17:44:45.489Z,6.10
2023-03-04T17:47:12.813Z,6.10
2023-03-04T17:49:39.699Z,6.10
2023-03-04T17:52:06.604Z,6.10
2023-03-04T17:54:33.453Z,6.10
2023-03-04T17:57:00.160Z,6.10
2023-03-04T17:59:27.214Z,6.10
2023-03-04T18:01:54.435Z,6.10
2023-03-04T18:04:21.206Z,6.00
2023-03-04T18:06:48.192Z,6.00
2023-03-04T18:09:14.964Z,6.00
2023-03-04T18:11:42.241Z,6.00
2023-03-04T18:14:09.370Z,5.90
2023-03-04T18:16:36.156Z,5.90
2023-03-04T18:19:04.635Z,5.90
2023-03-04T18:21:32.117Z,5.90
2023-03-04T18:23:59.173Z,5.90
2023-03-04T18:26:26.906Z,5.90
2023-03-04T18:28:55.812Z,5.90
2023-03-04T18:31:25.675Z,5.80
2023-03-04T18:33:52.634Z,5.90
2023-03-04T18:36:19.687Z,5.80
2023-03-04T18:38:46.408Z,5.80
2023-03-04T18:41:14.877Z,5.80
2023-03-04T18:43:42.135Z,5.80
2023-03-04T18:46:42.976Z,5.80
2023-03-04T18:49:11.676Z,5.80
2023-03-04T18:51:38.426Z,5.80
2023-03-04T18:54:05.490Z,5.70
2023-03-04T18:56:43.386Z,5.80
2023-03-04T18:59:19.894Z,5.80
2023-03-04T19:01:47.773Z,5.70
2023-03-04T19:04:17.456Z,5.70
2023-03-04T19:06:44.344Z,5.60
2023-03-04T19:09:11.260Z,5.60
2023-03-04T19:11:38.078Z,5.60
2023-03-04T19:14:05.942Z,5.60
2023-03-04T19:16:32.666Z,5.60
2023-03-04T19:18:59.520Z,5.50
2023-03-04T19:21:26.269Z,5.60
2023-03-04T19:23:52.994Z,5.60
2023-03-04T19:26:19.774Z,5.60
2023-03-04T19:28:46.477Z,5.60
2023-03-04T19:31:13.340Z,5.60
2023-03-04T19:33:41.032Z,5.60
2023-03-04T19:36:09.294Z,5.60
2023-03-04T19:38:36.360Z,5.60
2023-03-04T19:41:14.422Z,5.60
2023-03-04T19:43:41.244Z,5.50
2023-03-04T19:46:09.577Z,5.50
2023-03-04T19:48:38.032Z,5.60
2023-03-04T19:51:13.251Z,5.60
2023-03-04T19:53:39.945Z,5.60
2023-03-04T19:56:07.009Z,5.60
2023-03-04T19:58:33.716Z,5.60
2023-03-04T20:01:00.596Z,5.50
2023-03-04T20:03:27.602Z,5.50
2023-03-04T20:06:06.139Z,5.50
2023-03-04T20:08:33.163Z,5.50
2023-03-04T20:11:00.240Z,5.50
2023-03-04T20:13:27.041Z,5.50
2023-03-04T20:15:53.879Z,5.50
2023-03-04T20:18:20.741Z,5.50
2023-03-04T20:20:48.852Z,5.40
2023-03-04T20:23:20.169Z,5.40
2023-03-04T20:25:47.541Z,5.50
2023-03-04T20:28:14.454Z,5.50
2023-03-04T20:30:41.322Z,5.50
2023-03-04T20:33:08.261Z,5.40
2023-03-04T20:35:35.152Z,5.40
2023-03-04T20:38:02.333Z,5.50
2023-03-04T20:40:29.124Z,5.50
2023-03-04T20:42:55.872Z,5.50
2023-03-04T20:45:24.732Z,5.50
2023-03-04T20:47:51.479Z,5.50
2023-03-04T20:50:18.810Z,5.40
2023-03-04T20:52:46.105Z,5.50
2023-03-04T20:55:12.769Z,5.40
2023-03-04T20:57:39.650Z,5.40
2023-03-04T21:00:08.250Z,5.40
2023-03-04T21:02:34.972Z,5.30
2023-03-04T21:05:01.727Z,5.30
2023-03-04T21:07:28.522Z,5.30
2023-03-04T21:09:55.261Z,5.30
2023-03-04T21:12:22.164Z,5.10
2023-03-04T21:14:49.466Z,5.00
2023-03-04T21:17:16.266Z,4.90
2023-03-04T21:19:43.470Z,4.90
2023-03-04T21:22:15.812Z,4.80
2023-03-04T21:24:44.522Z,4.80
2023-03-04T21:27:12.995Z,4.80
2023-03-04T21:29:40.063Z,4.60
2023-03-04T21:32:24.761Z,4.60
2023-03-04T21:34:54.503Z,4.60
2023-03-04T21:37:22.854Z,4.50
2023-03-04T21:39:49.823Z,4.40
2023-03-04T21:42:16.599Z,4.40
2023-03-04T21:44:51.577Z,4.40
2023-03-04T21:47:20.056Z,4.40
2023-03-04T21:49:46.976Z,4.30
2023-03-04T21:52:13.803Z,4.30
2023-03-04T21:54:40.509Z,4.30
2023-03-04T21:57:07.407Z,4.30
2023-03-04T21:59:34.146Z,4.30
2023-03-04T22:02:01.532Z,4.30
2023-03-04T22:04:28.321Z,4.30
2023-03-04T22:06:54.985Z,4.20
2023-03-04T22:09:21.825Z,4.20
2023-03-04T22:11:48.512Z,4.20
2023-03-04T22:14:15.343Z,4.20
2023-03-04T22:16:54.380Z,4.20
2023-03-04T22:19:27.263Z,4.20
2023-03-04T22:21:54.102Z,4.20
2023-03-04T22:24:20.972Z,4.20
2023-03-04T22:26:48.008Z,4.20
2023-03-04T22:29:15.085Z,4.20
2023-03-04T22:31:42.216Z,4.20
2023-03-04T22:34:14.332Z,4.20
2023-03-04T22:36:45.252Z,4.20
2023-03-04T22:39:14.584Z,4.20
2023-03-04T22:41:41.562Z,4.20
2023-03-04T22:44:08.338Z,4.10
2023-03-04T22:46:38.156Z,4.10
2023-03-04T22:49:09.625Z,4.10
2023-03-04T22:51:37.104Z,4.10
2023-03-04T22:54:04.080Z,4.10
2023-03-04T22:56:30.885Z,4.00
2023-03-04T22:58:57.555Z,3.90
2023-03-04T23:01:24.824Z,3.90
2023-03-04T23:03:51.664Z,3.90
2023-03-04T23:06:27.692Z,3.90
2023-03-04T23:08:55.982Z,3.90
2023-03-04T23:11:28.028Z,4.00
2023-03-04T23:13:55.577Z,3.90
2023-03-04T23:16:23.096Z,3.90
2023-03-04T23:18:50.290Z,4.00
2023-03-04T23:21:23.573Z,3.90
2023-03-04T23:23:51.362Z,3.90
2023-03-04T23:26:24.268Z,3.90
2023-03-04T23:28:51.307Z,3.90
2023-03-04T23:31:18.899Z,3.90
2023-03-04T23:33:47.614Z,3.90
2023-03-04T23:36:16.651Z,3.90
2023-03-04T23:38:44.985Z,3.90
2023-03-04T23:41:17.192Z,3.90
2023-03-04T23:43:44.896Z,3.90
2023-03-04T23:46:11.974Z,4.00
2023-03-04T23:48:39.592Z,4.00
2023-03-04T23:51:06.701Z,3.90
2023-03-04T23:53:34.513Z,3.90
2023-03-04T23:56:01.646Z,3.90
2023-03-04T23:58:28.485Z,3.90
